createdAt,value
2023-02-01T16:18:56.280Z,2.71
2023-02-01T16:19:55.978Z,2.75
2023-02-01T16:20:55.977Z,2.69
2023-02-01T16:21:55.960Z,2.74
2023-02-01T16:22:55.995Z,2.67
2023-02-01T16:23:55.967Z,2.64
2023-02-01T16:24:55.965Z,2.71
2023-02-01T16:25:55.940Z,2.64
2023-02-01T16:26:55.983Z,2.74
2023-02-01T16:27:55.907Z,2.67
2023-02-01T16:28:55.963Z,2.71
2023-02-01T16:29:55.927Z,2.75
2023-02-01T16:30:55.910Z,2.69
2023-02-01T16:31:55.959Z,2.74
2023-02-01T16:32:56.050Z,2.75
2023-02-01T16:33:56.009Z,2.79
2023-02-01T16:34:56.131Z,2.78
2023-02-01T16:35:55.908Z,2.75
2023-02-01T16:36:55.909Z,2.79
2023-02-01T16:37:55.887Z,2.74
2023-02-01T16:38:55.822Z,2.74
2023-02-01T16:39:55.847Z,2.71
2023-02-01T16:40:55.776Z,2.72
2023-02-01T16:41:55.787Z,2.84
2023-02-01T16:42:55.813Z,2.78
2023-02-01T16:43:55.998Z,2.74
2023-02-01T16:44:55.779Z,2.69
2023-02-01T16:45:55.902Z,2.71
2023-02-01T16:46:55.689Z,2.82
2023-02-01T16:47:55.673Z,2.81
2023-02-01T16:48:55.677Z,2.81
2023-02-01T16:49:55.647Z,2.87
2023-02-01T16:50:55.686Z,2.74
2023-02-01T16:51:55.659Z,2.78
2023-02-01T16:52:55.684Z,2.75
2023-02-01T16:53:55.633Z,2.66
2023-02-01T16:54:55.697Z,2.72
2023-02-01T16:55:55.603Z,2.67
2023-02-01T16:56:55.575Z,2.74
2023-02-01T16:57:55.719Z,2.64
2023-02-01T16:58:55.607Z,2.71
2023-02-01T16:59:55.560Z,2.75
2023-02-01T17:00:55.584Z,2.69
2023-02-01T17:01:55.500Z,2.71
2023-02-01T17:02:55.513Z,2.75
2023-02-01T17:03:55.552Z,2.75
2023-02-01T17:04:55.594Z,2.71
2023-02-01T17:05:55.488Z,2.66
2023-02-01T17:06:55.453Z,2.56
2023-02-01T17:07:55.446Z,2.53
2023-02-01T17:08:55.466Z,2.53
2023-02-01T17:09:55.438Z,2.46
2023-02-01T17:10:55.407Z,2.42
2023-02-01T17:11:55.405Z,2.35
2023-02-01T17:12:55.446Z,2.30
2023-02-01T17:13:55.373Z,2.41
2023-02-01T17:14:55.406Z,2.41
2023-02-01T17:15:55.399Z,2.31
2023-02-01T17:16:55.404Z,2.28
2023-02-01T17:17:55.313Z,2.28
2023-02-01T17:18:55.316Z,2.23
2023-02-01T17:19:55.315Z,2.23
2023-02-01T17:20:55.317Z,2.21
2023-02-01T17:21:55.281Z,2.21
2023-02-01T17:22:55.287Z,2.28
2023-02-01T17:23:55.267Z,2.20
2023-02-01T17:24:55.247Z,2.06
2023-02-01T17:25:55.239Z,1.86
2023-02-01T17:26:55.308Z,1.65
2023-02-01T17:27:55.213Z,1.66
2023-02-01T17:28:55.204Z,1.44
2023-02-01T17:29:55.194Z,1.24
2023-02-01T17:30:55.211Z,1.12
2023-02-01T17:31:55.303Z,0.98
2023-02-01T17:32:55.204Z,0.91
2023-02-01T17:33:55.172Z,0.88
2023-02-01T17:34:55.153Z,0.87
2023-02-01T17:35:55.148Z,0.79
2023-02-01T17:36:55.123Z,0.72
2023-02-01T17:37:55.098Z,0.75
2023-02-01T17:39:05.289Z,0.75
2023-02-01T17:39:56.083Z,0.69
2023-02-01T17:40:55.076Z,0.70
2023-02-01T17:41:55.088Z,0.70
2023-02-01T17:42:55.073Z,0.78
2023-02-01T17:43:55.070Z,0.75
2023-02-01T17:44:55.049Z,0.70
2023-02-01T17:45:55.054Z,0.73
2023-02-01T17:46:55.051Z,0.73
2023-02-01T17:47:55.005Z,0.72
2023-02-01T17:48:55.995Z,0.76
2023-02-01T17:49:54.984Z,0.73
2023-02-01T17:50:54.964Z,0.72
2023-02-01T17:51:54.946Z,0.62
2023-02-01T17:52:54.955Z,0.65
2023-02-01T17:53:54.946Z,0.65
2023-02-01T17:54:54.948Z,0.68
2023-02-01T17:55:54.910Z,0.70
2023-02-01T17:56:54.901Z,0.73
2023-02-01T17:57:54.902Z,0.75
2023-02-01T17:58:54.862Z,0.72
2023-02-01T17:59:54.889Z,0.70
2023-02-01T18:00:54.875Z,0.75
2023-02-01T18:01:54.846Z,0.73
2023-02-01T18:02:54.819Z,0.83
2023-02-01T18:03:54.808Z,0.75
2023-02-01T18:04:54.835Z,0.83
2023-02-01T18:05:54.820Z,0.87
2023-02-01T18:06:54.777Z,0.90
2023-02-01T18:07:54.770Z,0.79
2023-02-01T18:08:54.764Z,0.91
2023-02-01T18:09:54.733Z,0.86
2023-02-01T18:10:54.751Z,0.87
2023-02-01T18:11:54.752Z,0.79
2023-02-01T18:12:54.728Z,0.90
2023-02-01T18:13:54.692Z,0.84
2023-02-01T18:14:54.693Z,0.90
2023-02-01T18:15:54.677Z,0.91
2023-02-01T18:16:54.700Z,0.80
2023-02-01T18:17:54.681Z,0.90
2023-02-01T18:18:54.881Z,0.87
2023-02-01T18:19:54.810Z,0.94
2023-02-01T18:20:54.615Z,0.78
2023-02-01T18:21:54.607Z,0.86
2023-02-01T18:22:54.701Z,0.84
2023-02-01T18:23:54.602Z,0.83
2023-02-01T18:24:54.632Z,0.83
2023-02-01T18:25:54.553Z,0.83
2023-02-01T18:26:54.640Z,0.90
2023-02-01T18:27:54.555Z,0.84
2023-02-01T18:28:54.554Z,0.78
2023-02-01T18:29:54.514Z,0.84
2023-02-01T18:30:54.659Z,0.87
2023-02-01T18:31:54.650Z,0.90
2023-02-01T18:32:54.502Z,0.87
2023-02-01T18:33:54.489Z,0.87
2023-02-01T18:34:54.464Z,0.91
2023-02-01T18:35:54.460Z,0.93
2023-02-01T18:36:54.473Z,0.84
2023-02-01T18:37:54.457Z,0.94
2023-02-01T18:38:54.441Z,0.93
2023-02-01T18:39:54.417Z,0.93
2023-02-01T18:40:54.387Z,0.93
2023-02-01T18:41:54.373Z,0.93
2023-02-01T18:42:54.369Z,0.96
2023-02-01T18:43:54.396Z,0.90
2023-02-01T18:44:54.340Z,0.94
2023-02-01T18:45:54.384Z,1.04
2023-02-01T18:46:54.344Z,0.91
2023-02-01T18:47:54.356Z,0.91
2023-02-01T18:48:54.294Z,1.04
2023-02-01T18:49:54.348Z,1.06
2023-02-01T18:50:54.274Z,1.06
2023-02-01T18:51:54.277Z,1.05
2023-02-01T18:52:54.256Z,1.08
2023-02-01T18:53:54.404Z,1.12
2023-02-01T18:54:59.905Z,1.09
2023-02-01T18:55:55.796Z,1.04
2023-02-01T18:56:55.132Z,1.15
2023-02-01T18:57:56.753Z,1.08
2023-02-01T18:58:54.207Z,1.18
2023-02-01T18:59:55.835Z,1.02
2023-02-01T19:00:54.167Z,1.06
2023-02-01T19:01:54.226Z,1.12
2023-02-01T19:02:54.253Z,1.12
2023-02-01T19:03:57.727Z,1.15
2023-02-01T19:04:55.188Z,1.12
2023-02-01T19:05:55.296Z,1.14
2023-02-01T19:06:54.141Z,1.15
2023-02-01T19:07:54.089Z,1.11
2023-02-01T19:08:54.096Z,1.20
2023-02-01T19:09:54.109Z,1.16
2023-02-01T19:10:54.076Z,1.14
2023-02-01T19:11:54.049Z,1.20
2023-02-01T19:12:54.032Z,1.18
2023-02-01T19:13:54.044Z,1.18
2023-02-01T19:14:54.011Z,1.18
2023-02-01T19:15:54.041Z,1.18
2023-02-01T19:16:54.003Z,1.23
2023-02-01T19:17:53.979Z,1.22
2023-02-01T19:18:54.019Z,1.18
2023-02-01T19:19:53.968Z,1.24
2023-02-01T19:20:53.970Z,1.22
2023-02-01T19:21:53.963Z,1.15
2023-02-01T19:22:54.055Z,1.09
2023-02-01T19:23:54.093Z,1.26
2023-02-01T19:24:54.730Z,1.18
2023-02-01T19:25:53.905Z,1.22
2023-02-01T19:26:53.915Z,1.18
2023-02-01T19:27:53.877Z,1.23
2023-02-01T19:28:53.872Z,1.12
2023-02-01T19:29:53.872Z,1.27
2023-02-01T19:30:53.923Z,1.22
2023-02-01T19:31:53.936Z,1.14
2023-02-01T19:32:53.816Z,1.15
2023-02-01T19:33:53.814Z,1.23
2023-02-01T19:34:53.776Z,1.20
2023-02-01T19:35:53.766Z,1.15
2023-02-01T19:36:53.806Z,1.23
2023-02-01T19:37:53.772Z,1.18
2023-02-01T19:38:53.762Z,1.08
2023-02-01T19:39:53.753Z,1.15
2023-02-01T19:40:53.722Z,1.09
2023-02-01T19:41:53.747Z,1.14
2023-02-01T19:42:53.707Z,1.20
2023-02-01T19:43:53.681Z,1.20
2023-02-01T19:44:53.697Z,1.15
2023-02-01T19:45:53.671Z,1.11
2023-02-01T19:46:53.729Z,1.14
2023-02-01T19:47:53.641Z,1.16
2023-02-01T19:48:53.902Z,1.12
2023-02-01T19:49:53.616Z,1.15
2023-02-01T19:50:53.632Z,1.15
2023-02-01T19:51:53.588Z,1.18
2023-02-01T19:52:53.612Z,1.20
2023-02-01T19:53:53.577Z,1.15
2023-02-01T19:54:53.640Z,1.12
2023-02-01T19:55:54.359Z,1.11
2023-02-01T19:56:53.569Z,1.15
2023-02-01T19:57:53.527Z,1.20
2023-02-01T19:58:54.899Z,1.15
2023-02-01T19:59:53.608Z,1.18
2023-02-01T20:00:52.625Z,1.16
2023-02-01T20:01:53.153Z,1.09
2023-02-01T20:02:52.707Z,1.16
2023-02-01T20:03:52.593Z,1.11
2023-02-01T20:04:52.845Z,1.14
2023-02-01T20:05:52.665Z,1.16
2023-02-01T20:06:53.499Z,1.06
2023-02-01T20:07:58.069Z,1.12
2023-02-01T20:08:53.442Z,1.14
2023-02-01T20:09:52.564Z,1.04
2023-02-01T20:10:52.533Z,1.15
2023-02-01T20:11:52.515Z,1.15
2023-02-01T20:12:52.494Z,1.11
2023-02-01T20:13:52.591Z,1.11
2023-02-01T20:14:52.461Z,1.11
2023-02-01T20:15:52.530Z,1.15
2023-02-01T20:16:52.465Z,1.15
2023-02-01T20:17:52.471Z,1.11
2023-02-01T20:18:52.435Z,1.16
2023-02-01T20:19:52.421Z,1.12
2023-02-01T20:20:52.465Z,1.15
2023-02-01T20:21:52.418Z,1.15
2023-02-01T20:22:52.433Z,1.24
2023-02-01T20:23:52.393Z,1.20
2023-02-01T20:24:52.379Z,1.23
2023-02-01T20:25:53.247Z,1.24
2023-02-01T20:26:53.310Z,1.23
2023-02-01T20:27:53.229Z,1.22
2023-02-01T20:28:53.195Z,1.27
2023-02-01T20:29:53.196Z,1.12
2023-02-01T20:30:53.187Z,1.12
2023-02-01T20:31:53.258Z,1.16
2023-02-01T20:32:53.157Z,1.20
2023-02-01T20:33:53.177Z,1.29
2023-02-01T20:34:53.129Z,1.20
2023-02-01T20:35:53.115Z,1.23
2023-02-01T20:36:53.111Z,1.24
2023-02-01T20:37:53.093Z,1.27
2023-02-01T20:38:53.092Z,1.22
2023-02-01T20:39:53.094Z,1.16
2023-02-01T20:40:53.054Z,1.26
2023-02-01T20:41:53.048Z,1.22
2023-02-01T20:42:53.096Z,1.16
2023-02-01T20:43:53.056Z,1.27
2023-02-01T20:44:53.003Z,1.22
2023-02-01T20:45:53.032Z,1.29
2023-02-01T20:46:53.058Z,1.23
2023-02-01T20:47:53.012Z,1.23
2023-02-01T20:48:52.987Z,1.26
2023-02-01T20:49:52.978Z,1.33
2023-02-01T20:50:52.941Z,1.30
2023-02-01T20:51:52.964Z,1.27
2023-02-01T20:52:52.925Z,1.32
2023-02-01T20:53:54.881Z,1.29
2023-02-01T20:54:52.933Z,1.32
2023-02-01T20:55:52.901Z,1.26
2023-02-01T20:56:52.905Z,1.30
2023-02-01T20:57:52.940Z,1.33
2023-02-01T20:58:52.991Z,1.34
2023-02-01T20:59:52.861Z,1.30
2023-02-01T21:00:52.876Z,1.34
2023-02-01T21:01:53.056Z,1.37
2023-02-01T21:02:53.256Z,1.26
2023-02-01T21:03:52.881Z,1.40
2023-02-01T21:04:53.161Z,1.42
2023-02-01T21:05:53.632Z,1.32
2023-02-01T21:06:54.499Z,1.37
2023-02-01T21:07:52.881Z,1.34
2023-02-01T21:08:52.848Z,1.42
2023-02-01T21:09:52.799Z,1.47
2023-02-01T21:10:52.810Z,1.33
2023-02-01T21:11:52.743Z,1.42
2023-02-01T21:13:03.899Z,1.42
2023-02-01T21:13:53.706Z,1.42
2023-02-01T21:14:52.772Z,1.45
2023-02-01T21:15:52.690Z,1.41
2023-02-01T21:16:52.708Z,1.44
2023-02-01T21:17:52.665Z,1.42
2023-02-01T21:18:52.645Z,1.37
2023-02-01T21:19:52.666Z,1.37
2023-02-01T21:20:52.625Z,1.37
2023-02-01T21:21:52.615Z,1.34
2023-02-01T21:22:52.599Z,1.48
2023-02-01T21:23:52.621Z,1.41
2023-02-01T21:24:52.591Z,1.33
2023-02-01T21:25:52.582Z,1.37
2023-02-01T21:26:52.582Z,1.42
2023-02-01T21:27:52.548Z,1.42
2023-02-01T21:28:52.619Z,1.42
2023-02-01T21:29:52.519Z,1.42
2023-02-01T21:30:52.546Z,1.45
2023-02-01T21:31:52.570Z,1.42
2023-02-01T21:32:52.508Z,1.42
2023-02-01T21:33:52.499Z,1.34
2023-02-01T21:34:52.467Z,1.41
2023-02-01T21:35:52.461Z,1.51
2023-02-01T21:36:52.442Z,1.54
2023-02-01T21:37:52.439Z,1.47
2023-02-01T21:38:52.451Z,1.48
2023-02-01T21:39:52.418Z,1.51
2023-02-01T21:40:52.402Z,1.54
2023-02-01T21:41:52.423Z,1.50
2023-02-01T21:42:52.388Z,1.52
2023-02-01T21:43:52.375Z,1.51
2023-02-01T21:44:52.353Z,1.54
2023-02-01T21:45:52.355Z,1.45
2023-02-01T21:46:52.327Z,1.45
2023-02-01T21:47:52.395Z,1.48
2023-02-01T21:49:04.509Z,1.45
2023-02-01T21:49:53.324Z,1.47
2023-02-01T21:50:52.303Z,1.51
2023-02-01T21:51:52.354Z,1.47
2023-02-01T21:52:52.293Z,1.51
2023-02-01T21:53:52.264Z,1.58
2023-02-01T21:54:52.240Z,1.54
2023-02-01T21:55:52.238Z,1.51
2023-02-01T21:56:52.282Z,1.52
2023-02-01T21:57:52.232Z,1.52
2023-02-01T21:58:52.289Z,1.52
2023-02-01T21:59:52.190Z,1.62
2023-02-01T22:00:52.214Z,1.54
2023-02-01T22:01:52.196Z,1.54
2023-02-01T22:02:52.153Z,1.52
2023-02-01T22:03:52.148Z,1.54
2023-02-01T22:04:52.143Z,1.54
2023-02-01T22:05:52.141Z,1.62
2023-02-01T22:06:52.123Z,1.50
2023-02-01T22:07:52.104Z,1.58
2023-02-01T22:08:52.102Z,1.58
2023-02-01T22:09:52.092Z,1.58
2023-02-01T22:10:52.057Z,1.52
2023-02-01T22:11:52.050Z,1.52
2023-02-01T22:12:52.060Z,1.58
2023-02-01T22:13:52.071Z,1.50
2023-02-01T22:14:52.024Z,1.48
2023-02-01T22:15:52.012Z,1.44
2023-02-01T22:16:52.120Z,1.48
2023-02-01T22:17:51.986Z,1.47
2023-02-01T22:18:51.996Z,1.62
2023-02-01T22:19:51.962Z,1.54
2023-02-01T22:20:51.940Z,1.50
2023-02-01T22:21:51.938Z,1.52
2023-02-01T22:22:51.946Z,1.51
2023-02-01T22:23:51.911Z,1.45
2023-02-01T22:24:51.902Z,1.44
2023-02-01T22:25:51.888Z,1.45
2023-02-01T22:26:52.001Z,1.48
2023-02-01T22:28:31.073Z,1.47
2023-02-01T22:28:52.882Z,1.48
2023-02-01T22:29:52.734Z,1.44
2023-02-01T22:30:51.886Z,1.51
2023-02-01T22:31:51.923Z,1.47
2023-02-01T22:32:51.805Z,1.51
2023-02-01T22:33:51.805Z,1.44
2023-02-01T22:34:51.798Z,1.50
2023-02-01T22:35:51.784Z,1.45
2023-02-01T22:36:51.760Z,1.59
2023-02-01T22:37:51.771Z,1.47
2023-02-01T22:38:51.753Z,1.48
2023-02-01T22:39:51.729Z,1.45
2023-02-01T22:40:51.792Z,1.55
2023-02-01T22:41:51.708Z,1.51
2023-02-01T22:42:51.686Z,1.47
2023-02-01T22:43:51.749Z,1.47
2023-02-01T22:44:51.661Z,1.55
2023-02-01T22:45:51.679Z,1.62
2023-02-01T22:46:51.646Z,1.54
2023-02-01T22:47:51.639Z,1.52
2023-02-01T22:48:51.703Z,1.48
2023-02-01T22:49:51.610Z,1.44
2023-02-01T22:50:51.588Z,1.51
2023-02-01T22:51:51.585Z,1.48
2023-02-01T22:52:51.552Z,1.47
2023-02-01T22:53:51.579Z,1.47
2023-02-01T22:54:51.557Z,1.48
2023-02-01T22:55:51.539Z,1.51
2023-02-01T22:56:51.519Z,1.47
2023-02-01T22:57:51.507Z,1.52
2023-02-01T22:58:51.506Z,1.52
2023-02-01T22:59:51.494Z,1.59
2023-02-01T23:00:51.460Z,1.52
2023-02-01T23:01:51.491Z,1.48
2023-02-01T23:02:51.493Z,1.54
2023-02-01T23:03:51.440Z,1.52
2023-02-01T23:04:51.444Z,1.54
2023-02-01T23:05:51.439Z,1.47
2023-02-01T23:06:51.401Z,1.55
2023-02-01T23:07:51.406Z,1.44
2023-02-01T23:08:51.418Z,1.52
2023-02-01T23:09:51.379Z,1.48
2023-02-01T23:10:51.357Z,1.47
2023-02-01T23:11:51.368Z,1.54
2023-02-01T23:12:51.331Z,1.50
2023-02-01T23:13:51.313Z,1.50
2023-02-01T23:14:51.319Z,1.58
2023-02-01T23:15:51.334Z,1.54
2023-02-01T23:16:51.302Z,1.59
2023-02-01T23:17:51.287Z,1.47
2023-02-01T23:18:51.255Z,1.54
2023-02-01T23:19:51.248Z,1.50
2023-02-01T23:20:51.250Z,1.52
2023-02-01T23:21:51.250Z,1.47
2023-02-01T23:22:51.214Z,1.51
2023-02-01T23:23:51.198Z,1.51
2023-02-01T23:24:51.191Z,1.52
2023-02-01T23:25:51.197Z,1.48
2023-02-01T23:26:51.298Z,1.54
2023-02-01T23:27:51.146Z,1.54
2023-02-01T23:28:51.140Z,1.48
2023-02-01T23:29:51.130Z,1.58
2023-02-01T23:30:51.228Z,1.51
2023-02-01T23:31:51.187Z,1.54
2023-02-01T23:32:51.093Z,1.59
2023-02-01T23:33:51.088Z,1.55
2023-02-01T23:34:51.076Z,1.48
2023-02-01T23:35:51.061Z,1.54
2023-02-01T23:36:51.074Z,1.47
2023-02-01T23:37:51.048Z,1.48
2023-02-01T23:38:51.028Z,1.48
2023-02-01T23:39:51.008Z,1.52
2023-02-01T23:40:51.009Z,1.52
2023-02-01T23:41:51.053Z,1.54
2023-02-01T23:42:50.983Z,1.47
2023-02-01T23:43:50.974Z,1.54
2023-02-01T23:44:50.983Z,1.58
2023-02-01T23:45:50.986Z,1.62
2023-02-01T23:46:50.932Z,1.51
2023-02-01T23:47:50.921Z,1.51
2023-02-01T23:48:50.922Z,1.50
2023-02-01T23:49:50.903Z,1.55
2023-02-01T23:50:50.905Z,1.52
2023-02-01T23:51:50.903Z,1.51
2023-02-01T23:52:50.880Z,1.48
2023-02-01T23:53:50.890Z,1.52
2023-02-01T23:54:50.856Z,1.50
2023-02-01T23:55:50.838Z,1.54
2023-02-01T23:56:50.849Z,1.54
2023-02-01T23:57:50.830Z,1.50
2023-02-01T23:58:50.811Z,1.54
2023-02-01T23:59:50.778Z,1.48
